Time;durP1;ratioP1;P1;durP2;ratioP2;P2;SDS_P1;SDS_P2;PMS_P1;PMS_P2;Temp;Humidity;BMP_temperature;BMP_pressure;BME280_temperature;BME280_humidity;BME280_pressure;Samples;Min_cycle;Max_cycle;Signal;HPM_P1;HPM_P2
2022/11/08 00:03:06;;;;;;;5.90;4.10;;;;;;;;;;4901032;29;20063;-85
2022/11/08 00:13:56;;;;;;;6.35;4.47;;;;;;;;;;4906582;29;20051;-88
2022/11/08 00:16:21;;;;;;;9.73;4.68;;;;;;;;;;4907015;29;20040;-89
2022/11/08 00:18:47;;;;;;;6.82;3.58;;;;;;;;;;4909672;29;20079;-89
2022/11/08 00:21:12;;;;;;;6.63;4.18;;;;;;;;;;4889962;29;20111;-90
2022/11/08 00:23:37;;;;;;;5.40;3.72;;;;;;;;;;4893252;29;20068;-88
2022/11/08 00:26:03;;;;;;;8.88;3.90;;;;;;;;;;4907247;29;20047;-89
2022/11/08 00:28:28;;;;;;;6.20;4.32;;;;;;;;;;4897412;29;20553;-90
2022/11/08 00:30:54;;;;;;;4.70;3.10;;;;;;;;;;4914291;29;20071;-90
2022/11/08 00:33:19;;;;;;;5.50;3.45;;;;;;;;;;4905946;29;20409;-89
2022/11/08 00:35:44;;;;;;;3.88;3.00;;;;;;;;;;4905304;29;20508;-88
2022/11/08 00:38:10;;;;;;;10.23;4.00;;;;;;;;;;4911887;29;20044;-89
2022/11/08 00:40:35;;;;;;;6.68;3.63;;;;;;;;;;4896742;29;20378;-88
2022/11/08 00:43:01;;;;;;;7.80;4.35;;;;;;;;;;4908200;29;20498;-86
2022/11/08 00:45:26;;;;;;;4.82;2.92;;;;;;;;;;4909396;29;20497;-88
2022/11/08 00:47:51;;;;;;;4.70;3.03;;;;;;;;;;4887543;29;20044;-87
2022/11/08 00:50:17;;;;;;;4.95;3.45;;;;;;;;;;4906308;29;20040;-89
2022/11/08 00:52:42;;;;;;;9.90;5.30;;;;;;;;;;4909434;29;20120;-86
2022/11/08 00:55:08;;;;;;;6.60;3.78;;;;;;;;;;4893155;29;20039;-88
2022/11/08 00:57:33;;;;;;;10.23;4.70;;;;;;;;;;4906916;29;20040;-86
2022/11/08 00:59:58;;;;;;;9.43;4.70;;;;;;;;;;4906858;29;20386;-86
2022/11/08 01:02:24;;;;;;;7.50;5.38;;;;;;;;;;4908667;29;20046;-86
2022/11/08 01:04:49;;;;;;;12.40;5.68;;;;;;;;;;4906977;29;20041;-87
2022/11/08 01:07:14;;;;;;;6.47;4.47;;;;;;;;;;4909238;29;20056;-86
2022/11/08 01:09:40;;;;;;;6.75;3.38;;;;;;;;;;4908718;29;20477;-85
2022/11/08 01:12:05;;;;;;;4.85;3.58;;;;;;;;;;4908204;29;20045;-86
2022/11/08 01:14:31;;;;;;;6.82;4.28;;;;;;;;;;4910078;29;20404;-87
2022/11/08 01:16:56;;;;;;;4.78;3.53;;;;;;;;;;4908291;29;20037;-86
2022/11/08 01:19:21;;;;;;;7.55;5.45;;;;;;;;;;4915862;29;20032;-87
2022/11/08 01:21:47;;;;;;;6.25;4.10;;;;;;;;;;4915040;29;20368;-86
2022/11/08 01:24:12;;;;;;;4.88;3.40;;;;;;;;;;4916732;29;20044;-86
2022/11/08 01:26:37;;;;;;;5.93;4.32;;;;;;;;;;4908648;29;20319;-88
2022/11/08 01:29:03;;;;;;;4.43;3.03;;;;;;;;;;4889413;29;20043;-87
2022/11/08 01:31:30;;;;;;;6.00;4.07;;;;;;;;;;4911579;29;20451;-85
2022/11/08 01:33:57;;;;;;;6.38;4.32;;;;;;;;;;4905812;29;20389;-87
2022/11/08 01:36:24;;;;;;;5.90;3.85;;;;;;;;;;4909757;29;20043;-87
2022/11/08 01:38:51;;;;;;;9.93;4.50;;;;;;;;;;4907894;29;20076;-86
2022/11/08 01:41:18;;;;;;;8.93;4.60;;;;;;;;;;4909127;29;20032;-85
2022/11/08 01:43:46;;;;;;;9.30;4.60;;;;;;;;;;4913413;29;20495;-87
2022/11/08 01:46:18;;;;;;;5.60;3.47;;;;;;;;;;4906878;29;20104;-88
2022/11/08 01:48:55;;;;;;;8.50;3.80;;;;;;;;;;4908432;29;20512;-87
2022/11/08 01:51:27;;;;;;;4.03;2.95;;;;;;;;;;4888343;29;20409;-87
2022/11/08 01:53:53;;;;;;;7.18;2.97;;;;;;;;;;4907799;29;20394;-86
2022/11/08 01:56:19;;;;;;;6.38;3.75;;;;;;;;;;4908563;29;20036;-85
2022/11/08 01:58:47;;;;;;;5.57;3.42;;;;;;;;;;4914982;29;20036;-86
2022/11/08 02:01:14;;;;;;;10.35;4.10;;;;;;;;;;4912399;29;20424;-88
2022/11/08 02:03:40;;;;;;;8.70;4.75;;;;;;;;;;4911069;29;20074;-89
2022/11/08 02:06:07;;;;;;;12.88;3.92;;;;;;;;;;4913512;29;20528;-88
2022/11/08 02:08:37;;;;;;;9.02;5.78;;;;;;;;;;4911954;29;20112;-84
2022/11/08 02:11:03;;;;;;;;;;;;;;;;;;4918234;29;20047;-85
2022/11/08 02:13:29;;;;;;;7.80;4.20;;;;;;;;;;4913863;29;19915;-88
2022/11/08 02:15:55;;;;;;;12.63;6.80;;;;;;;;;;4917392;29;20541;-88
2022/11/08 02:18:24;;;;;;;8.57;5.85;;;;;;;;;;4905799;29;20067;-87
2022/11/08 02:20:59;;;;;;;13.75;8.35;;;;;;;;;;4890304;29;20043;-88
2022/11/08 02:23:31;;;;;;;9.73;6.43;;;;;;;;;;4905419;29;20050;-87
2022/11/08 02:25:56;;;;;;;8.40;6.38;;;;;;;;;;4907944;29;20039;-86
2022/11/08 02:28:22;;;;;;;19.40;7.50;;;;;;;;;;4911390;29;20111;-88
2022/11/08 02:30:47;;;;;;;12.18;8.05;;;;;;;;;;4913676;29;20044;-89
2022/11/08 02:33:18;;;;;;;12.68;7.00;;;;;;;;;;4910026;29;20040;-86
2022/11/08 02:35:50;;;;;;;16.80;7.15;;;;;;;;;;4908236;29;20544;-85
2022/11/08 02:38:16;;;;;;;9.27;6.90;;;;;;;;;;4914468;29;20067;-88
2022/11/08 02:40:53;;;;;;;13.88;6.97;;;;;;;;;;4899510;29;20048;-86
2022/11/08 02:43:19;;;;;;;11.40;7.00;;;;;;;;;;4913112;29;20063;-86
2022/11/08 02:45:45;;;;;;;13.68;7.60;;;;;;;;;;4913796;29;20040;-87
2022/11/08 02:48:11;;;;;;;16.67;8.50;;;;;;;;;;4907939;29;20556;-87
2022/11/08 02:50:37;;;;;;;12.60;7.25;;;;;;;;;;4898805;29;20182;-86
2022/11/08 02:53:03;;;;;;;12.88;8.95;;;;;;;;;;4907445;29;20111;-88
2022/11/08 02:55:29;;;;;;;11.32;7.03;;;;;;;;;;4911303;29;20051;-86
2022/11/08 02:57:55;;;;;;;10.23;6.43;;;;;;;;;;4909972;29;20128;-88
2022/11/08 03:00:21;;;;;;;15.00;6.38;;;;;;;;;;4907286;29;20504;-89
2022/11/08 03:02:50;;;;;;;15.48;6.72;;;;;;;;;;4901704;29;20039;-89
2022/11/08 03:05:35;;;;;;;10.73;6.93;;;;;;;;;;4898388;29;20048;-92
2022/11/08 03:08:14;;;;;;;11.40;6.72;;;;;;;;;;4905495;29;20044;-90
2022/11/08 03:10:44;;;;;;;8.85;6.10;;;;;;;;;;4915483;29;20047;-92
2022/11/08 03:13:09;;;;;;;11.90;7.28;;;;;;;;;;4903899;29;20203;-88
2022/11/08 03:15:34;;;;;;;10.65;6.53;;;;;;;;;;4912678;29;20131;-87
2022/11/08 03:18:01;;;;;;;10.60;8.07;;;;;;;;;;4912903;29;20046;-87
2022/11/08 03:20:26;;;;;;;9.77;6.03;;;;;;;;;;4914907;29;20425;-88
2022/11/08 03:23:04;;;;;;;11.20;5.85;;;;;;;;;;4909797;29;20032;-90
2022/11/08 03:25:29;;;;;;;10.30;4.55;;;;;;;;;;4910148;29;20072;-87
2022/11/08 03:27:55;;;;;;;9.88;5.50;;;;;;;;;;4891111;29;20048;-87
2022/11/08 03:30:21;;;;;;;7.15;4.70;;;;;;;;;;4897276;29;20033;-89
2022/11/08 03:32:48;;;;;;;7.03;5.00;;;;;;;;;;4906204;29;20032;-88
2022/11/08 03:35:14;;;;;;;11.77;6.35;;;;;;;;;;4898772;29;20501;-90
2022/11/08 03:37:39;;;;;;;8.00;5.88;;;;;;;;;;4896646;29;20123;-88
2022/11/08 03:40:06;;;;;;;10.18;6.85;;;;;;;;;;4896699;29;20055;-89
2022/11/08 03:42:31;;;;;;;12.25;6.07;;;;;;;;;;4889592;29;20447;-89
2022/11/08 03:44:56;;;;;;;11.82;7.22;;;;;;;;;;4900847;29;20073;-87
2022/11/08 03:47:22;;;;;;;10.35;6.93;;;;;;;;;;4903202;29;20036;-89
2022/11/08 03:49:47;;;;;;;13.10;6.57;;;;;;;;;;4908493;29;20481;-88
2022/11/08 03:52:12;;;;;;;16.85;7.00;;;;;;;;;;4909510;29;20148;-88
2022/11/08 03:54:38;;;;;;;12.68;7.72;;;;;;;;;;4902400;29;20485;-87
2022/11/08 03:57:03;;;;;;;13.00;6.95;;;;;;;;;;4909593;29;20033;-87
2022/11/08 03:59:29;;;;;;;10.38;7.55;;;;;;;;;;4892220;29;20046;-88
2022/11/08 04:01:54;;;;;;;14.90;7.30;;;;;;;;;;4894148;29;20040;-88
2022/11/08 04:04:20;;;;;;;9.65;5.95;;;;;;;;;;4897973;29;20450;-89
2022/11/08 04:06:45;;;;;;;10.43;6.78;;;;;;;;;;4888734;29;20037;-89
2022/11/08 04:09:10;;;;;;;19.65;7.13;;;;;;;;;;4912241;29;20039;-89
2022/11/08 04:17:04;;;;;;;12.00;6.32;;;;;;;;;;4910011;29;20450;-86
2022/11/08 04:22:13;;;;;;;12.32;7.25;;;;;;;;;;4908992;29;20084;-86
2022/11/08 04:24:38;;;;;;;13.18;7.50;;;;;;;;;;4910478;29;20040;-86
2022/11/08 04:27:04;;;;;;;16.25;7.07;;;;;;;;;;4895211;29;20056;-87
2022/11/08 04:29:29;;;;;;;10.90;6.47;;;;;;;;;;4894830;29;20127;-85
2022/11/08 04:31:55;;;;;;;10.32;6.03;;;;;;;;;;4913950;29;20036;-88
2022/11/08 04:34:20;;;;;;;20.48;8.70;;;;;;;;;;4895043;29;20434;-86
2022/11/08 04:36:46;;;;;;;8.95;5.00;;;;;;;;;;4907022;29;20084;-86
2022/11/08 04:39:11;;;;;;;11.20;6.60;;;;;;;;;;4909581;29;20037;-87
2022/11/08 04:41:37;;;;;;;13.90;5.75;;;;;;;;;;4914585;29;20038;-86
2022/11/08 04:44:02;;;;;;;9.20;5.72;;;;;;;;;;4918909;29;20044;-86
2022/11/08 04:46:28;;;;;;;12.52;7.40;;;;;;;;;;4905744;29;20453;-85
2022/11/08 04:48:56;;;;;;;9.30;5.43;;;;;;;;;;4912117;29;20028;-88
2022/11/08 04:51:27;;;;;;;10.05;6.10;;;;;;;;;;4903353;29;20032;-88
2022/11/08 04:54:00;;;;;;;11.52;6.80;;;;;;;;;;4909176;29;20122;-86
2022/11/08 04:56:28;;;;;;;10.18;6.35;;;;;;;;;;4909714;29;20115;-88
2022/11/08 04:58:57;;;;;;;12.68;6.63;;;;;;;;;;4913539;29;20048;-88
2022/11/08 05:01:25;;;;;;;10.73;6.78;;;;;;;;;;4913261;29;20051;-88
2022/11/08 05:03:52;;;;;;;8.55;5.55;;;;;;;;;;4914885;29;20040;-87
2022/11/08 05:06:26;;;;;;;11.20;6.30;;;;;;;;;;4915965;29;20035;-88
2022/11/08 05:08:53;;;;;;;11.35;7.75;;;;;;;;;;4898567;29;20481;-90
2022/11/08 05:11:21;;;;;;;14.10;7.13;;;;;;;;;;4920893;29;20047;-88
2022/11/08 05:13:47;;;;;;;9.27;6.47;;;;;;;;;;4915577;29;20042;-86
2022/11/08 05:16:17;;;;;;;17.63;7.13;;;;;;;;;;4898529;29;20119;-88
2022/11/08 05:18:43;;;;;;;10.40;6.03;;;;;;;;;;4901121;29;20040;-87
2022/11/08 05:23:59;;;;;;;13.15;7.50;;;;;;;;;;4908148;29;20059;-86
2022/11/08 05:26:25;;;;;;;7.70;5.93;;;;;;;;;;4912890;29;20695;-85
2022/11/08 05:28:51;;;;;;;16.05;8.32;;;;;;;;;;4914622;29;20473;-86
2022/11/08 05:31:17;;;;;;;12.73;7.78;;;;;;;;;;4903315;29;20087;-86
2022/11/08 05:33:43;;;;;;;10.65;6.65;;;;;;;;;;4895619;29;20062;-86
2022/11/08 05:36:11;;;;;;;13.65;7.47;;;;;;;;;;4916024;29;20040;-86
2022/11/08 05:38:38;;;;;;;10.05;6.93;;;;;;;;;;4911654;29;20066;-86
2022/11/08 05:41:17;;;;;;;12.15;6.70;;;;;;;;;;4900490;29;20024;-86
2022/11/08 05:43:45;;;;;;;9.68;5.40;;;;;;;;;;4913137;29;20043;-87
2022/11/08 05:46:12;;;;;;;8.35;6.07;;;;;;;;;;4911321;29;20504;-86
2022/11/08 05:48:37;;;;;;;13.27;7.22;;;;;;;;;;4899333;29;20040;-87
2022/11/08 05:51:03;;;;;;;8.25;4.40;;;;;;;;;;4912096;29;20040;-87
2022/11/08 05:53:29;;;;;;;10.80;5.75;;;;;;;;;;4911093;29;20037;-89
2022/11/08 05:55:59;;;;;;;11.77;6.97;;;;;;;;;;4911735;29;20067;-87
2022/11/08 05:58:24;;;;;;;;;;;;;;;;;;4889689;29;20040;-88
2022/11/08 06:00:50;;;;;;;10.95;7.15;;;;;;;;;;4894052;29;20340;-87
2022/11/08 06:03:15;;;;;;;10.43;6.72;;;;;;;;;;4918784;29;20032;-88
2022/11/08 06:05:41;;;;;;;11.10;6.40;;;;;;;;;;4903349;29;20069;-87
2022/11/08 06:08:06;;;;;;;11.80;7.50;;;;;;;;;;4901740;29;20107;-86
2022/11/08 06:10:31;;;;;;;19.70;8.20;;;;;;;;;;4899991;29;20379;-86
2022/11/08 06:12:59;;;;;;;10.13;6.85;;;;;;;;;;4906699;29;20040;-86
2022/11/08 06:15:25;;;;;;;14.13;8.40;;;;;;;;;;4900008;29;20044;-86
2022/11/08 06:17:50;;;;;;;16.25;8.13;;;;;;;;;;4901657;29;20044;-86
2022/11/08 06:20:16;;;;;;;11.98;7.72;;;;;;;;;;4903912;29;20035;-86
2022/11/08 06:22:42;;;;;;;17.27;11.82;;;;;;;;;;4897862;29;20029;-86
2022/11/08 06:25:08;;;;;;;12.95;7.97;;;;;;;;;;4897314;29;20064;-87
2022/11/08 06:27:35;;;;;;;19.75;10.98;;;;;;;;;;4896535;29;20078;-85
2022/11/08 06:30:00;;;;;;;16.98;10.30;;;;;;;;;;4901958;29;20031;-86
2022/11/08 06:32:26;;;;;;;13.02;9.02;;;;;;;;;;4881678;29;20036;-85
2022/11/08 06:34:51;;;;;;;10.02;7.40;;;;;;;;;;4882190;29;20398;-85
2022/11/08 06:37:17;;;;;;;17.20;9.02;;;;;;;;;;4881460;29;20037;-86
2022/11/08 06:39:43;;;;;;;16.10;8.35;;;;;;;;;;4880207;29;20048;-84
2022/11/08 06:42:08;;;;;;;12.10;6.72;;;;;;;;;;4897394;29;20039;-87
2022/11/08 06:44:34;;;;;;;13.48;7.95;;;;;;;;;;4898487;29;20128;-86
2022/11/08 06:46:59;;;;;;;10.60;7.72;;;;;;;;;;4894653;29;20032;-86
2022/11/08 06:49:25;;;;;;;13.88;7.60;;;;;;;;;;4897311;29;20413;-86
2022/11/08 06:51:51;;;;;;;13.35;8.75;;;;;;;;;;4878233;29;20041;-88
2022/11/08 06:54:17;;;;;;;10.93;6.88;;;;;;;;;;4899826;29;20477;-84
2022/11/08 06:56:44;;;;;;;11.38;6.72;;;;;;;;;;4897979;29;20507;-87
2022/11/08 06:59:09;;;;;;;18.13;7.47;;;;;;;;;;4900155;29;20060;-88
2022/11/08 07:01:35;;;;;;;9.27;6.38;;;;;;;;;;4899040;29;20482;-87
2022/11/08 07:35:47;;;;;;;;;;;;;;;;;;;;;
2022/11/08 07:43:17;;;;;;;;;;;;;;;;;;;;;
2022/11/08 08:46:35;;;;;;;28.90;19.33;;;;;;;;;;4894219;29;20086;-88
2022/11/08 08:49:00;;;;;;;15.85;8.65;;;;;;;;;;4877539;29;20041;-89
2022/11/08 08:58:13;;;;;;;12.30;5.63;;;;;;;;;;4899022;29;20516;-89
2022/11/08 09:00:39;;;;;;;7.97;5.07;;;;;;;;;;4889784;29;20100;-86
2022/11/08 09:03:06;;;;;;;6.75;5.15;;;;;;;;;;4892841;29;20040;-86
2022/11/08 09:05:32;;;;;;;7.57;5.60;;;;;;;;;;4894695;29;20489;-86
2022/11/08 09:07:58;;;;;;;10.18;5.93;;;;;;;;;;4892767;29;20041;-86
2022/11/08 09:10:23;;;;;;;14.63;6.47;;;;;;;;;;4893892;29;20115;-84
2022/11/08 09:12:49;;;;;;;8.00;5.15;;;;;;;;;;4896271;29;20066;-87
2022/11/08 09:15:15;;;;;;;12.18;6.63;;;;;;;;;;4895471;29;20490;-87
2022/11/08 09:17:41;;;;;;;9.63;5.97;;;;;;;;;;4896801;29;20108;-88
2022/11/08 09:20:07;;;;;;;7.18;4.72;;;;;;;;;;4875469;29;20048;-87
2022/11/08 09:22:33;;;;;;;8.52;5.60;;;;;;;;;;4890393;29;20136;-86
2022/11/08 09:24:59;;;;;;;9.30;5.65;;;;;;;;;;4892388;29;21817;-93
2022/11/08 09:27:27;;;;;;;7.95;4.68;;;;;;;;;;4883995;29;20039;-87
2022/11/08 09:29:52;;;;;;;8.60;4.97;;;;;;;;;;4882361;29;20456;-88
2022/11/08 09:32:17;;;;;;;10.43;6.20;;;;;;;;;;4890259;29;20150;-87
2022/11/08 09:34:43;;;;;;;10.48;5.95;;;;;;;;;;4885762;29;20056;-87
2022/11/08 09:37:09;;;;;;;8.50;5.45;;;;;;;;;;4895373;29;20502;-86
2022/11/08 09:39:34;;;;;;;14.18;5.93;;;;;;;;;;4880817;29;20153;-85
2022/11/08 09:42:02;;;;;;;8.95;5.15;;;;;;;;;;4894455;29;20036;-84
2022/11/08 09:44:58;;;;;;;10.35;5.55;;;;;;;;;;4877894;29;20196;-84
2022/11/08 09:47:30;;;;;;;7.30;4.47;;;;;;;;;;4875039;29;20036;-87
2022/11/08 09:50:19;;;;;;;8.77;4.97;;;;;;;;;;4879607;29;20064;-84
2022/11/08 09:52:53;;;;;;;10.07;5.47;;;;;;;;;;4885330;29;20642;-87
2022/11/08 09:55:29;;;;;;;9.75;5.85;;;;;;;;;;4891059;29;20504;-87
2022/11/08 09:58:04;;;;;;;9.20;6.00;;;;;;;;;;4888733;29;20037;-85
2022/11/08 10:00:30;;;;;;;10.38;5.07;;;;;;;;;;4876022;29;21446;-85
2022/11/08 10:02:55;;;;;;;7.10;4.43;;;;;;;;;;4893591;29;20029;-86
2022/11/08 10:05:21;;;;;;;14.32;5.47;;;;;;;;;;4891246;29;20437;-85
2022/11/08 10:08:03;;;;;;;7.38;4.25;;;;;;;;;;4893730;29;20107;-84
2022/11/08 10:10:58;;;;;;;8.10;5.63;;;;;;;;;;4893547;29;20179;-85
2022/11/08 10:13:44;;;;;;;9.80;5.38;;;;;;;;;;4901413;29;20525;-86
2022/11/08 10:16:35;;;;;;;7.20;3.95;;;;;;;;;;4904221;29;20032;-86
2022/11/08 10:19:28;;;;;;;9.63;5.28;;;;;;;;;;4912151;29;20050;-85
2022/11/08 10:22:22;;;;;;;10.32;5.47;;;;;;;;;;4909277;29;20039;-86
2022/11/08 10:25:04;;;;;;;10.65;4.57;;;;;;;;;;4913844;29;20036;-86
2022/11/08 10:27:40;;;;;;;10.35;4.93;;;;;;;;;;4912191;29;20746;-85
2022/11/08 10:30:29;;;;;;;6.60;3.72;;;;;;;;;;4907689;29;20032;-87
2022/11/08 10:32:56;;;;;;;7.03;4.65;;;;;;;;;;4908689;29;20045;-87
2022/11/08 10:35:27;;;;;;;10.27;4.63;;;;;;;;;;4915937;29;20066;-87
2022/11/08 10:37:55;;;;;;;7.10;4.32;;;;;;;;;;4910581;29;20047;-87
2022/11/08 10:40:40;;;;;;;11.60;5.72;;;;;;;;;;4907923;29;20039;-85
2022/11/08 10:43:19;;;;;;;8.95;4.50;;;;;;;;;;4906457;29;20029;-86
2022/11/08 10:45:44;;;;;;;9.10;4.38;;;;;;;;;;4909418;29;20048;-84
2022/11/08 10:48:13;;;;;;;5.72;4.00;;;;;;;;;;4897133;29;20454;-85
2022/11/08 10:50:49;;;;;;;10.07;5.43;;;;;;;;;;4911483;29;20036;-83
2022/11/08 10:53:30;;;;;;;6.68;4.25;;;;;;;;;;4911184;29;20493;-85
2022/11/08 10:56:05;;;;;;;9.90;5.15;;;;;;;;;;4914717;29;20040;-85
2022/11/08 10:58:36;;;;;;;5.25;3.97;;;;;;;;;;4910639;29;20055;-84
2022/11/08 11:01:21;;;;;;;12.68;4.93;;;;;;;;;;4909883;29;20075;-87
2022/11/08 11:03:49;;;;;;;8.27;4.68;;;;;;;;;;4914742;29;20066;-86
2022/11/08 11:06:28;;;;;;;8.88;5.10;;;;;;;;;;4913717;29;20505;-84
2022/11/08 11:08:56;;;;;;;11.55;5.35;;;;;;;;;;4911341;29;20033;-85
2022/11/08 11:11:23;;;;;;;6.72;3.65;;;;;;;;;;4914274;29;20046;-85
2022/11/08 11:14:06;;;;;;;11.32;4.55;;;;;;;;;;4899415;29;20107;-84
2022/11/08 11:16:33;;;;;;;13.85;5.50;;;;;;;;;;4900224;29;20150;-85
2022/11/08 11:19:01;;;;;;;12.10;4.80;;;;;;;;;;4909644;29;20036;-84
2022/11/08 11:21:35;;;;;;;7.38;5.15;;;;;;;;;;4912912;29;20035;-86
2022/11/08 11:24:11;;;;;;;10.05;4.85;;;;;;;;;;4910997;29;20068;-85
2022/11/08 11:26:58;;;;;;;6.32;4.03;;;;;;;;;;4910024;29;20384;-84
2022/11/08 11:29:29;;;;;;;9.27;4.22;;;;;;;;;;4912988;29;20068;-86
2022/11/08 11:31:55;;;;;;;8.10;4.75;;;;;;;;;;4906932;29;20040;-84
2022/11/08 11:34:30;;;;;;;8.18;4.90;;;;;;;;;;4914279;29;20032;-84
2022/11/08 11:37:08;;;;;;;9.63;4.60;;;;;;;;;;4903419;29;20613;-85
2022/11/08 11:39:33;;;;;;;10.48;5.30;;;;;;;;;;4898406;29;20202;-85
2022/11/08 11:42:10;;;;;;;6.95;4.63;;;;;;;;;;4908721;29;20129;-86
2022/11/08 11:44:54;;;;;;;6.90;4.97;;;;;;;;;;4906249;29;20047;-85
2022/11/08 11:47:38;;;;;;;9.85;5.38;;;;;;;;;;4905599;29;20043;-83
2022/11/08 11:50:27;;;;;;;10.35;6.25;;;;;;;;;;4897521;29;20044;-84
2022/11/08 11:52:58;;;;;;;13.80;6.25;;;;;;;;;;4900980;29;20052;-83
2022/11/08 11:55:51;;;;;;;9.43;4.65;;;;;;;;;;4912187;29;20036;-84
2022/11/08 11:58:45;;;;;;;8.63;5.03;;;;;;;;;;4904452;29;20059;-85
2022/11/08 12:01:19;;;;;;;8.05;4.05;;;;;;;;;;4908627;29;20036;-85
2022/11/08 12:03:51;;;;;;;10.80;6.40;;;;;;;;;;4914523;29;20400;-84
2022/11/08 12:06:37;;;;;;;9.45;4.63;;;;;;;;;;4891348;29;20047;-83
2022/11/08 12:09:31;;;;;;;12.25;4.95;;;;;;;;;;4909407;29;20161;-84
2022/11/08 12:12:27;;;;;;;9.45;5.35;;;;;;;;;;4881265;29;20045;-83
2022/11/08 12:15:10;;;;;;;5.63;3.85;;;;;;;;;;4907236;29;20037;-84
2022/11/08 12:18:00;;;;;;;6.80;4.38;;;;;;;;;;4909953;29;20040;-84
2022/11/08 12:20:28;;;;;;;9.50;4.95;;;;;;;;;;4909923;29;20465;-84
2022/11/08 12:22:57;;;;;;;7.68;5.00;;;;;;;;;;4908657;29;20040;-85
2022/11/08 12:25:30;;;;;;;7.03;3.90;;;;;;;;;;4905478;29;20032;-84
2022/11/08 12:28:25;;;;;;;11.02;4.20;;;;;;;;;;4892170;29;20074;-83
2022/11/08 12:31:04;;;;;;;6.63;4.15;;;;;;;;;;4909881;29;20110;-84
2022/11/08 12:33:50;;;;;;;7.28;4.80;;;;;;;;;;4904653;29;20040;-86
2022/11/08 12:36:41;;;;;;;8.57;4.38;;;;;;;;;;4903517;29;20516;-84
2022/11/08 12:39:29;;;;;;;6.05;4.07;;;;;;;;;;4901622;29;20049;-84
2022/11/08 12:42:19;;;;;;;6.68;3.97;;;;;;;;;;4902942;29;20036;-84
2022/11/08 12:45:03;;;;;;;6.80;3.95;;;;;;;;;;4913121;29;20070;-85
2022/11/08 12:47:53;;;;;;;9.07;4.43;;;;;;;;;;4906921;29;20493;-84
2022/11/08 12:50:23;;;;;;;;;;;;;;;;;;4905007;29;20052;-86
2022/11/08 12:52:51;;;;;;;8.75;4.28;;;;;;;;;;4906087;29;20316;-83
2022/11/08 12:55:32;;;;;;;12.63;3.63;;;;;;;;;;4914380;29;20036;-84
2022/11/08 12:58:00;;;;;;;16.27;4.25;;;;;;;;;;4914514;29;20044;-84
2022/11/08 13:00:28;;;;;;;8.43;4.10;;;;;;;;;;4890487;29;20497;-83
2022/11/08 13:03:11;;;;;;;6.50;4.47;;;;;;;;;;4908155;29;20044;-84
2022/11/08 13:05:43;;;;;;;6.80;3.33;;;;;;;;;;4882583;29;20081;-84
2022/11/08 13:08:15;;;;;;;8.98;3.55;;;;;;;;;;4911323;29;20837;-83
2022/11/08 13:11:06;;;;;;;4.80;3.17;;;;;;;;;;4904313;29;20512;-84
2022/11/08 13:13:47;;;;;;;6.00;3.97;;;;;;;;;;4911112;29;20152;-85
2022/11/08 13:16:16;;;;;;;6.40;4.13;;;;;;;;;;4905516;29;20374;-84
2022/11/08 13:18:43;;;;;;;6.80;3.35;;;;;;;;;;4899365;29;20431;-84
2022/11/08 13:21:27;;;;;;;7.63;4.00;;;;;;;;;;4909119;29;20230;-86
2022/11/08 13:24:14;;;;;;;4.65;3.00;;;;;;;;;;4915041;29;20433;-84
2022/11/08 13:26:41;;;;;;;6.47;3.67;;;;;;;;;;4916437;29;20048;-83
2022/11/08 13:29:15;;;;;;;6.43;4.00;;;;;;;;;;4908312;29;20130;-84
2022/11/08 13:31:47;;;;;;;4.95;3.30;;;;;;;;;;4912780;29;20040;-83
2022/11/08 13:34:21;;;;;;;12.43;5.22;;;;;;;;;;4892638;29;20051;-83
2022/11/08 13:37:17;;;;;;;9.85;4.57;;;;;;;;;;4912316;29;20036;-84
2022/11/08 13:39:59;;;;;;;5.95;3.08;;;;;;;;;;4909132;29;20040;-83
2022/11/08 13:42:38;;;;;;;6.20;3.88;;;;;;;;;;4903670;29;20363;-85
2022/11/08 13:45:16;;;;;;;4.85;3.10;;;;;;;;;;4907700;29;20115;-84
2022/11/08 13:47:41;;;;;;;7.63;4.20;;;;;;;;;;4911131;29;20052;-84
2022/11/08 13:50:32;;;;;;;6.50;3.40;;;;;;;;;;4902124;29;20591;-84
2022/11/08 13:53:22;;;;;;;6.60;3.42;;;;;;;;;;4914868;29;20040;-85
2022/11/08 13:56:03;;;;;;;10.48;4.03;;;;;;;;;;4913825;29;20040;-85
2022/11/08 13:58:38;;;;;;;5.57;3.40;;;;;;;;;;4913174;29;20036;-84
2022/11/08 14:01:05;;;;;;;6.18;3.47;;;;;;;;;;4913714;29;20397;-85
2022/11/08 14:03:33;;;;;;;6.57;3.42;;;;;;;;;;4911280;29;20041;-84
2022/11/08 14:06:15;;;;;;;5.53;3.05;;;;;;;;;;4911705;29;20036;-86
2022/11/08 14:09:07;;;;;;;4.72;2.80;;;;;;;;;;4900469;29;20401;-86
2022/11/08 14:11:35;;;;;;;5.53;2.47;;;;;;;;;;4910165;29;20131;-84
2022/11/08 14:14:22;;;;;;;7.78;3.97;;;;;;;;;;4915129;29;20040;-87
2022/11/08 14:16:59;;;;;;;6.07;3.50;;;;;;;;;;4910505;29;20482;-86
2022/11/08 14:19:29;;;;;;;3.17;1.90;;;;;;;;;;4915034;29;20100;-86
2022/11/08 14:21:57;;;;;;;6.72;2.65;;;;;;;;;;4914193;29;20115;-85
2022/11/08 14:24:36;;;;;;;6.40;3.78;;;;;;;;;;4913557;29;20540;-87
2022/11/08 14:27:02;;;;;;;3.88;2.70;;;;;;;;;;4914618;29;20397;-86
2022/11/08 14:29:27;;;;;;;6.10;3.60;;;;;;;;;;4912553;29;20040;-86
2022/11/08 14:32:22;;;;;;;5.30;3.17;;;;;;;;;;4917559;29;20066;-86
2022/11/08 14:34:47;;;;;;;5.88;3.13;;;;;;;;;;4895628;29;20190;-84
2022/11/08 14:37:25;;;;;;;6.25;3.72;;;;;;;;;;4911146;29;20127;-87
2022/11/08 14:39:52;;;;;;;6.47;3.42;;;;;;;;;;4909666;29;21387;-85
2022/11/08 14:42:22;;;;;;;6.20;3.45;;;;;;;;;;4904904;29;20066;-87
2022/11/08 14:44:52;;;;;;;7.05;3.55;;;;;;;;;;4900367;29;20052;-87
2022/11/08 14:47:31;;;;;;;6.05;4.07;;;;;;;;;;4895964;29;20040;-87
2022/11/08 14:49:57;;;;;;;9.40;4.22;;;;;;;;;;4912138;29;20552;-87
2022/11/08 14:52:29;;;;;;;4.78;2.83;;;;;;;;;;4914342;29;20037;-88
2022/11/08 14:55:04;;;;;;;9.15;4.80;;;;;;;;;;4912704;29;20028;-88
2022/11/08 14:57:35;;;;;;;6.80;3.83;;;;;;;;;;4894696;29;20043;-87
2022/11/08 15:00:25;;;;;;;5.53;3.70;;;;;;;;;;4906372;29;20046;-88
2022/11/08 15:03:04;;;;;;;8.48;4.30;;;;;;;;;;4907031;29;20035;-87
2022/11/08 15:05:40;;;;;;;4.85;2.95;;;;;;;;;;4914102;29;20040;-87
2022/11/08 15:08:21;;;;;;;5.60;3.33;;;;;;;;;;4894498;29;20067;-89
2022/11/08 15:11:02;;;;;;;4.22;2.85;;;;;;;;;;4909761;29;20048;-89
2022/11/08 15:13:31;;;;;;;7.47;4.40;;;;;;;;;;4895097;29;20773;-87
2022/11/08 15:16:01;;;;;;;4.78;2.97;;;;;;;;;;4915533;29;20044;-87
2022/11/08 15:18:32;;;;;;;7.90;3.35;;;;;;;;;;4913222;29;20050;-85
2022/11/08 15:21:04;;;;;;;7.80;4.97;;;;;;;;;;4909672;29;20576;-85
2022/11/08 15:23:49;;;;;;;5.97;3.75;;;;;;;;;;4893329;29;20051;-85
2022/11/08 15:26:31;;;;;;;5.35;2.90;;;;;;;;;;4913919;29;20454;-84
2022/11/08 15:29:26;;;;;;;5.72;3.28;;;;;;;;;;4913558;29;20072;-85
2022/11/08 15:31:54;;;;;;;5.07;3.00;;;;;;;;;;4890789;29;20085;-85
2022/11/08 15:34:36;;;;;;;5.20;3.00;;;;;;;;;;4895588;29;20076;-83
2022/11/08 15:37:17;;;;;;;6.50;4.30;;;;;;;;;;4908956;29;20040;-84
2022/11/08 15:39:43;;;;;;;6.20;4.07;;;;;;;;;;4909978;29;20087;-83
2022/11/08 15:42:14;;;;;;;3.88;2.95;;;;;;;;;;4906081;29;20112;-84
2022/11/08 15:45:11;;;;;;;6.97;3.80;;;;;;;;;;4911268;29;20032;-83
2022/11/08 15:47:39;;;;;;;5.45;2.95;;;;;;;;;;4896464;29;20044;-83
2022/11/08 15:50:16;;;;;;;4.45;3.20;;;;;;;;;;4914898;29;20040;-85
2022/11/08 15:52:43;;;;;;;12.57;3.65;;;;;;;;;;4885647;29;20521;-84
2022/11/08 15:55:16;;;;;;;12.50;3.13;;;;;;;;;;4905456;29;20096;-85
2022/11/08 15:57:43;;;;;;;6.32;3.38;;;;;;;;;;4905241;29;20055;-86
2022/11/08 16:00:14;;;;;;;6.20;4.10;;;;;;;;;;4895581;29;20036;-86
2022/11/08 16:02:40;;;;;;;4.38;3.50;;;;;;;;;;4910076;29;20028;-85
2022/11/08 16:05:15;;;;;;;5.07;3.17;;;;;;;;;;4912896;29;20032;-85
2022/11/08 16:07:41;;;;;;;5.85;4.45;;;;;;;;;;4910133;29;20042;-85
2022/11/08 16:10:07;;;;;;;5.22;3.63;;;;;;;;;;4908856;29;20050;-87
2022/11/08 16:12:33;;;;;;;6.05;3.40;;;;;;;;;;4909141;29;20684;-86
2022/11/08 16:14:58;;;;;;;7.57;4.53;;;;;;;;;;4908920;29;20060;-88
2022/11/08 16:17:24;;;;;;;16.15;3.92;;;;;;;;;;4913356;29;20139;-83
2022/11/08 16:19:49;;;;;;;6.53;3.60;;;;;;;;;;4909196;29;20455;-83
2022/11/08 16:22:15;;;;;;;9.38;4.80;;;;;;;;;;4903830;29;20705;-84
2022/11/08 16:24:40;;;;;;;3.35;2.35;;;;;;;;;;4905094;29;20520;-84
2022/11/08 16:27:05;;;;;;;3.80;2.65;;;;;;;;;;4909750;29;20036;-85
2022/11/08 16:29:33;;;;;;;3.35;2.72;;;;;;;;;;4883582;29;20381;-86
2022/11/08 16:31:59;;;;;;;6.35;4.18;;;;;;;;;;4911243;29;20048;-85
2022/11/08 16:34:24;;;;;;;4.68;3.35;;;;;;;;;;4894491;29;20067;-83
2022/11/08 16:36:50;;;;;;;5.43;3.13;;;;;;;;;;4910290;29;20500;-82
2022/11/08 16:39:20;;;;;;;4.63;3.22;;;;;;;;;;4913380;29;20059;-85
2022/11/08 16:41:45;;;;;;;5.57;2.92;;;;;;;;;;4916288;29;20032;-88
2022/11/08 16:44:11;;;;;;;3.63;2.80;;;;;;;;;;4911850;29;20873;-84
2022/11/08 16:46:37;;;;;;;7.25;5.15;;;;;;;;;;4905985;29;20481;-84
2022/11/08 16:49:04;;;;;;;7.13;4.38;;;;;;;;;;4916106;29;20051;-83
2022/11/08 16:51:30;;;;;;;15.15;4.97;;;;;;;;;;4916810;29;20040;-86
2022/11/08 16:53:55;;;;;;;5.88;3.70;;;;;;;;;;4916492;29;20042;-85
2022/11/08 16:56:21;;;;;;;8.48;3.30;;;;;;;;;;4915541;29;20028;-86
2022/11/08 16:58:47;;;;;;;7.22;4.18;;;;;;;;;;4913848;29;20095;-86
2022/11/08 17:01:17;;;;;;;5.38;3.25;;;;;;;;;;4911785;29;20039;-83
2022/11/08 17:03:42;;;;;;;4.85;3.08;;;;;;;;;;4907040;29;20343;-85
2022/11/08 17:06:15;;;;;;;6.05;3.58;;;;;;;;;;4917287;29;20046;-84
2022/11/08 17:08:40;;;;;;;3.95;2.47;;;;;;;;;;4910710;29;20035;-85